Weather observations for the past three days for
Ocean County Airport
Imperial (Metric)
Date Time (edt) Wind (mph) Vis. (mi.) Weather Sky Cond. Temperature (ºF) Relative Humidity Wind Chill (°F) Heat Index (°F) Pressure Precipitation (in)
Air Dwpt 6 hour altimeter (in) sea level (mb) 1 hr 3 hr 6 hr
Max. Min.
04 13:56 W 10 G 16 10.00 Mostly Cloudy BKN046 BKN060 87.1 66.9 88 75.9 51% 90 29.88 1012.2
04 12:56 NW 10 G 16 10.00 Partly Cloudy SCT044 86 66.9 53% 89 29.88 1012.1
04 11:56 N 12 10.00 A Few Clouds FEW042 84.9 68 57% 88 29.89 1012.4
04 10:56 NW 15 10.00 Fair CLR 82.9 68 61% 86 29.89 1012.4
04 09:56 NW 9 10.00 A Few Clouds FEW024 82 72 72% 87 29.89 1012.5
04 08:56 NW 10 10.00 Fair CLR 79 75 88% 83 29.89 1012.3
04 07:56 W 7 10.00 Fair CLR 75.9 75.9 75.9 73 100% 75 29.89 1012.2
04 06:56 W 7 10.00 Fair CLR 73.4 0 0% 29.87 1011.6
04 05:56 W 7 10.00 Fair CLR 73.4 0 0% 29.86 1011.3
04 04:56 W 7 10.00 Partly Cloudy SCT110 73.4 0 0% 29.86 1011.4
04 03:56 W 3 10.00 Overcast OVC100 73.4 0 0% 29.86 1011.3
04 02:56 Calm 10.00 A Few Clouds FEW110 73.4 0 0% 29.85 1011.2
04 01:56 SW 7 10.00 Light Rain FEW060 OVC090 75 75 79 75 100% 72 29.87 1011.8 0.02 0.02
04 00:56 SW 7 10.00 Fair CLR 75 75 100% 72 29.89 1012.5
03 23:56 SW 7 10.00 Fair CLR 75 75 100% 72 29.91 1013.2
03 22:56 W 3 10.00 Fair CLR 75.9 75.9 100% 75 29.92 1013.3
03 21:56 SW 6 10.00 Fair CLR 77 77 100% 78 29.94 1013.9
03 20:56 S 5 10.00 Fair CLR 78.1 78.1 100% 81 29.93 1013.8
03 19:56 S 3 10.00 Fair CLR 79 79 89.1 79 100% 84 29.92 1013.4
03 18:56 W 6 10.00 Fair CLR 84 73.9 72% 91 29.91 1013.1
03 17:56 W 7 10.00 Fair CLR 84.9 73 68% 92 29.91 1012.9
03 16:56 SW 10 10.00 Fair CLR 87.1 73 63% 95 29.9 1012.7
03 15:56 SW 12 G 17 10.00 A Few Clouds FEW034 89.1 73 59% 97 29.91 1013.1
03 14:56 W 8 G 16 10.00 Mostly Cloudy BKN032 89.1 73 59% 97 29.93 1013.6
03 13:56 W 13 10.00 A Few Clouds FEW027 87.1 73 87.1 71.1 63% 95 29.95 1014.5
03 12:56 W 14 G 18 10.00 Mostly Cloudy BKN024 BKN031 86 73 65% 93 29.98 1015.5
03 11:56 W 10 10.00 Partly Cloudy SCT020 84 73.9 72% 91 30 1016.0
03 10:56 SW 9 10.00 Fair CLR 82 72 72% 87 30 1016.1
03 09:56 W 6 10.00 Fair CLR 77 73 88% 78 29.99 1015.7
03 08:56 SW 7 10.00 Fair CLR 71.6 0 0% 30 1016.0
03 07:56 SW 8 10.00 Fair CLR 71.6 0 72 70 0% 30.01 1016.7 0.32
03 06:56 W 5 10.00 Light Rain BKN100 69.8 0 0% 30 1016.1 0.04
03 05:56 S 6 10.00 Rain BKN075 OVC095 69.8 0 0% 30.03 1017.1 0.08
03 04:56 W 9 10.00 Light Rain SCT003 BKN041 OVC080 71.6 0 0% 30.04 1017.6 0.2
03 03:56 Calm 10.00 Overcast OVC003 71.6 0 0% 30.02 1016.9 0.15
03 02:56 W 6 7.00 Thunderstorm Rain OVC005 71.6 0 0% 30.08 1018.8 0.05
03 01:56 N 8 8.00 Light Rain OVC003 71.6 0 72 71.1 0% 30.07 1018.5
03 00:56 Calm 10.00 Overcast OVC005 71.6 0 0% 30.06 1018.4
02 23:56 NW 3 10.00 Overcast OVC007 71.6 0 0% 30.08 1018.9
02 22:56 Calm 10.00 Overcast OVC007 71.6 0 0% 30.08 1018.9
02 21:56 Calm 10.00 Overcast OVC011 71.6 0 0% 30.08 1018.9
02 20:56 E 3 10.00 Overcast OVC013 72 72 100% 30.09 1019.4
02 19:56 E 3 10.00 Overcast OVC019 72 72 75 71.1 100% 30.07 1018.7
02 18:56 E 3 10.00 Overcast OVC012 71.1 71.1 100% 30.08 1018.9
02 17:56 E 5 10.00 Overcast OVC014 72 72 100% 30.1 1019.7
02 16:56 E 3 10.00 Overcast OVC014 73 73 100% 30.09 1019.2
02 15:56 E 5 10.00 Overcast OVC016 73.9 72 94% 30.1 1019.5
02 14:56 E 5 10.00 Overcast OVC016 73.9 71.1 91% 30.11 1020.0
02 13:56 NE 8 10.00 Overcast OVC016 73.9 70 75 70 88% 30.13 1020.6 0.01
02 12:56 NE 8 10.00 Overcast OVC014 73.9 70 88% 30.12 1020.4
02 11:56 E 9 10.00 Overcast OVC014 73.9 73 97% 30.13 1020.5
02 10:56 E 6 10.00 Overcast OVC012 71.6 0 0% 30.13 1020.6 0.01
02 09:56 NE 5 5.00 Overcast with Haze BKN003 OVC010 71.6 0 0% 30.13 1020.7 0.01
02 08:56 NE 7 3.00 Fog/Mist OVC003 69.8 0 0% 30.11 1020.0
02 07:56 NE 8 2.00 Light Rain OVC003 69.8 0 71.1 70 0% 30.11 1019.7 0.01 0.01
02 06:56 NE 7 3.00 Fog/Mist OVC005 69.8 0 0% 30.1 1019.6
02 05:56 NE 6 4.00 Overcast with Haze OVC005 71.6 0 0% 30.08 1019.0
02 04:56 NE 7 3.00 Fog/Mist OVC005 71.6 0 0% 30.07 1018.4
02 03:56 NE 5 3.00 Fog/Mist OVC003 71.6 0 0% 30.06 1018.1
02 02:56 NE 9 3.00 Fog/Mist OVC003 71.6 0 0% 30.05 1017.8
02 00:56 NE 10 6.00 Overcast with Haze OVC003 71.6 0 0% 30.04 1017.6
01 23:56 N 7 6.00 Overcast with Haze OVC005 71.6 0 0% 30.04 1017.3
01 22:56 NW 3 10.00 Mostly Cloudy BKN014 69.8 0 0% 30.03 1017.0 0.01 0.6
01 21:56 Calm 10.00 Thunderstorm Rain FEW037 SCT065 BKN080 71.6 0 0% 30 1015.9 0.46
01 20:56 NE 21 G 30 5.00 Thunderstorm Heavy Rain Fog/Mist and Breezy FEW012 BKN039 OVC050 72 72 100% 30 1016.1 0.13
01 19:56 Calm 10.00 Mostly Cloudy FEW043 SCT055 BKN095 79 78.1 91.9 79 97% 83 29.94 1014.1
01 18:56 S 3 10.00 A Few Clouds FEW046 81 75 82% 87 29.94 1014.0
01 17:56 W 5 10.00 Mostly Cloudy SCT046 BKN060 88 73 61% 96 29.94 1014.0
01 16:56 W 6 10.00 Partly Cloudy SCT080 90 72 56% 97 29.94 1014.0
01 15:56 SW 10 10.00 A Few Clouds FEW085 91 71.1 52% 98 29.94 1014.0
01 14:56 W 8 10.00 Fair CLR 90 73.9 59% 99 29.95 1014.3
Date Time (edt) Wind (mph) Vis. (mi.) Weather Sky Cond. Air Dwpt Max. Min. Relative Humidity Wind Chill (°F) Heat Index (°F) altimeter (in) sea level (mb) 1 hr 3 hr 6 hr
6 hour
Temperature (ºF) Pressure Precipitation (in)